createdAt,value
2022-11-21T00:01:19.711Z,3.89
2022-11-21T00:03:48.179Z,3.81
2022-11-21T00:06:16.549Z,3.96
2022-11-21T00:08:45.045Z,3.89
2022-11-21T00:11:14.297Z,3.83
2022-11-21T00:13:42.662Z,3.93
2022-11-21T00:16:13.516Z,4.02
2022-11-21T00:18:42.350Z,3.86
2022-11-21T00:21:18.264Z,3.80
2022-11-21T00:23:47.444Z,3.77
2022-11-21T00:26:16.455Z,3.72
2022-11-21T00:28:45.270Z,3.73
2022-11-21T00:31:23.579Z,3.51
2022-11-21T00:33:51.292Z,3.48
2022-11-21T00:36:19.071Z,3.67
2022-11-21T00:38:46.587Z,3.80
2022-11-21T00:41:14.261Z,3.88
2022-11-21T00:43:41.973Z,3.85
2022-11-21T00:46:09.486Z,3.67
2022-11-21T00:48:36.956Z,3.90
2022-11-21T00:51:04.722Z,3.89
2022-11-21T00:53:32.256Z,3.84
2022-11-21T00:55:59.729Z,3.57
2022-11-21T00:58:30.968Z,3.55
2022-11-21T01:01:11.284Z,3.70
2022-11-21T01:03:40.804Z,3.66
2022-11-21T01:06:10.875Z,3.45
2022-11-21T01:08:40.894Z,3.65
2022-11-21T01:11:12.300Z,3.51
2022-11-21T01:13:40.420Z,3.66
2022-11-21T01:16:10.766Z,3.53
2022-11-21T01:18:39.513Z,3.59
2022-11-21T01:21:12.660Z,3.54
2022-11-21T01:23:41.149Z,3.52
2022-11-21T01:26:12.400Z,3.54
2022-11-21T01:28:40.561Z,3.56
2022-11-21T01:31:10.505Z,3.53
2022-11-21T01:33:38.520Z,3.52
2022-11-21T01:36:07.347Z,3.49
2022-11-21T01:38:35.009Z,3.46
2022-11-21T01:41:02.588Z,3.52
2022-11-21T01:43:30.272Z,3.55
2022-11-21T01:46:00.422Z,3.42
2022-11-21T01:49:08.519Z,3.61
2022-11-21T01:51:51.240Z,3.57
2022-11-21T01:54:24.807Z,3.43
2022-11-21T01:57:14.503Z,3.49
2022-11-21T01:59:42.048Z,3.40
2022-11-21T02:02:12.701Z,3.26
2022-11-21T02:04:43.392Z,3.36
2022-11-21T02:07:13.384Z,3.35
2022-11-21T02:09:44.737Z,3.32
2022-11-21T02:12:21.459Z,3.39
2022-11-21T02:14:50.224Z,3.48
2022-11-21T02:17:18.488Z,3.53
2022-11-21T02:19:48.680Z,3.20
2022-11-21T02:22:31.470Z,3.04
2022-11-21T02:25:09.768Z,3.31
2022-11-21T02:27:38.141Z,3.42
2022-11-21T02:30:08.064Z,3.37
2022-11-21T02:32:39.368Z,3.16
2022-11-21T02:35:08.108Z,3.10
2022-11-21T02:37:37.272Z,3.07
2022-11-21T02:40:15.763Z,3.05
2022-11-21T02:43:02.778Z,3.05
2022-11-21T02:45:40.400Z,3.18
2022-11-21T02:48:08.192Z,3.06
2022-11-21T02:50:38.035Z,3.05
2022-11-21T02:53:07.942Z,3.16
2022-11-21T02:55:35.719Z,3.06
2022-11-21T02:58:05.194Z,3.04
2022-11-21T03:00:34.481Z,2.93
2022-11-21T03:03:02.592Z,2.93
2022-11-21T03:05:30.374Z,3.13
2022-11-21T03:07:57.872Z,3.26
2022-11-21T03:10:25.864Z,3.13
2022-11-21T03:13:00.992Z,3.07
2022-11-21T03:15:31.485Z,3.32
2022-11-21T03:18:01.137Z,3.31
2022-11-21T03:20:30.517Z,3.28
2022-11-21T03:22:57.996Z,3.25
2022-11-21T03:25:25.524Z,3.33
2022-11-21T03:27:54.306Z,3.32
2022-11-21T03:30:23.030Z,3.32
2022-11-21T03:32:50.602Z,3.25
2022-11-21T03:35:18.530Z,3.18
2022-11-21T03:37:48.919Z,3.20
2022-11-21T03:40:16.435Z,3.23
2022-11-21T03:42:44.344Z,3.14
2022-11-21T03:45:11.832Z,3.12
2022-11-21T03:47:39.304Z,3.26
2022-11-21T03:50:07.753Z,3.08
2022-11-21T03:52:35.265Z,3.02
2022-11-21T03:55:02.657Z,3.20
2022-11-21T03:57:30.424Z,3.34
2022-11-21T03:59:57.855Z,3.33
2022-11-21T04:02:25.355Z,3.09
2022-11-21T04:04:53.224Z,3.05
2022-11-21T04:07:20.803Z,3.19
2022-11-21T04:09:48.289Z,3.15
2022-11-21T04:12:16.071Z,3.20
2022-11-21T04:14:43.417Z,3.09
2022-11-21T04:17:10.827Z,3.35
2022-11-21T04:19:38.620Z,3.46
2022-11-21T04:22:06.056Z,3.51
2022-11-21T04:24:33.520Z,3.48
2022-11-21T04:27:01.289Z,3.41
2022-11-21T04:29:28.708Z,3.45
2022-11-21T04:31:56.227Z,3.51
2022-11-21T04:34:23.917Z,3.54
2022-11-21T04:36:51.313Z,3.53
2022-11-21T04:39:18.737Z,3.49
2022-11-21T04:41:46.479Z,3.52
2022-11-21T04:44:13.901Z,3.56
2022-11-21T04:46:41.352Z,3.50
2022-11-21T04:49:09.403Z,3.54
2022-11-21T04:51:36.814Z,3.55
2022-11-21T04:54:04.269Z,3.60
2022-11-21T04:56:32.047Z,3.59
2022-11-21T04:59:00.001Z,3.63
2022-11-21T05:01:27.424Z,3.61
2022-11-21T05:03:55.147Z,3.62
2022-11-21T05:06:22.629Z,3.69
2022-11-21T05:08:52.854Z,3.63
2022-11-21T05:11:40.696Z,3.64
2022-11-21T05:14:08.101Z,3.64
2022-11-21T05:16:35.913Z,3.66
2022-11-21T05:19:03.447Z,3.58
2022-11-21T05:21:30.873Z,3.60
2022-11-21T05:23:58.729Z,3.55
2022-11-21T05:26:26.177Z,3.56
2022-11-21T05:28:53.912Z,3.51
2022-11-21T05:31:21.706Z,3.59
2022-11-21T05:33:49.177Z,3.48
2022-11-21T05:36:16.706Z,3.62
2022-11-21T05:38:44.480Z,3.64
2022-11-21T05:41:12.047Z,3.60
2022-11-21T05:43:49.069Z,3.49
2022-11-21T05:46:23.280Z,3.47
2022-11-21T05:48:53.167Z,3.48
2022-11-21T05:51:21.752Z,3.48
2022-11-21T05:53:49.240Z,3.52
2022-11-21T05:56:18.928Z,3.47
2022-11-21T05:58:46.840Z,3.42
2022-11-21T06:01:14.805Z,3.27
2022-11-21T06:03:42.952Z,3.44
2022-11-21T06:06:12.688Z,3.45
2022-11-21T06:08:42.668Z,3.42
2022-11-21T06:11:12.850Z,3.48
2022-11-21T06:13:40.811Z,3.39
2022-11-21T06:16:11.666Z,3.47
2022-11-21T06:18:44.985Z,3.47
2022-11-21T06:21:23.900Z,3.51
2022-11-21T06:23:56.835Z,3.44
2022-11-21T06:26:26.583Z,3.47
2022-11-21T06:28:54.832Z,3.38
2022-11-21T06:31:25.315Z,3.35
2022-11-21T06:33:54.693Z,3.41
2022-11-21T06:36:22.473Z,3.46
2022-11-21T06:38:50.001Z,3.40
2022-11-21T06:41:19.871Z,3.42
2022-11-21T06:43:47.904Z,3.33
2022-11-21T06:46:16.117Z,3.32
2022-11-21T06:48:44.458Z,3.24
2022-11-21T06:51:25.143Z,3.42
2022-11-21T06:53:58.211Z,3.46
2022-11-21T06:56:28.049Z,3.44
2022-11-21T06:58:56.274Z,3.48
2022-11-21T07:01:24.444Z,3.51
2022-11-21T07:03:53.004Z,3.50
2022-11-21T07:06:20.658Z,3.55
2022-11-21T07:09:00.074Z,3.60
2022-11-21T07:11:36.043Z,3.28
2022-11-21T07:14:08.824Z,3.61
2022-11-21T07:16:37.288Z,3.73
2022-11-21T07:19:04.956Z,3.52
2022-11-21T07:21:33.069Z,3.59
2022-11-21T07:24:00.800Z,3.57
2022-11-21T07:26:28.438Z,3.74
2022-11-21T07:28:55.905Z,3.83
2022-11-21T07:31:23.625Z,3.69
2022-11-21T07:33:51.041Z,3.91
2022-11-21T07:36:18.498Z,4.01
2022-11-21T07:38:46.596Z,4.03
2022-11-21T07:41:14.412Z,3.78
2022-11-21T07:43:41.908Z,3.95
2022-11-21T07:46:09.608Z,4.00
2022-11-21T07:48:37.292Z,3.86
2022-11-21T07:51:05.549Z,3.85
2022-11-21T07:53:33.525Z,4.05
2022-11-21T07:56:01.137Z,4.11
2022-11-21T07:58:28.748Z,4.06
2022-11-21T08:00:56.624Z,4.21
2022-11-21T08:03:25.342Z,4.19
2022-11-21T08:05:52.846Z,4.19
2022-11-21T08:08:20.363Z,4.38
2022-11-21T08:10:48.305Z,4.55
2022-11-21T08:13:15.729Z,4.32
2022-11-21T08:15:43.304Z,4.75
2022-11-21T08:18:13.715Z,4.95
2022-11-21T08:20:42.043Z,4.73
2022-11-21T08:23:10.924Z,4.97
2022-11-21T08:25:40.326Z,4.89
2022-11-21T08:28:10.224Z,4.45
2022-11-21T08:30:40.096Z,4.95
2022-11-21T08:33:08.355Z,5.11
2022-11-21T08:35:38.224Z,5.10
2022-11-21T08:38:06.785Z,5.23
2022-11-21T08:40:36.071Z,5.32
2022-11-21T08:43:08.369Z,5.43
2022-11-21T08:45:39.392Z,5.18
2022-11-21T08:48:11.888Z,5.43
2022-11-21T08:50:39.668Z,5.55
2022-11-21T08:53:07.082Z,5.72
2022-11-21T08:55:34.973Z,5.46
2022-11-21T08:58:02.896Z,5.61
2022-11-21T09:00:30.384Z,5.66
2022-11-21T09:02:57.837Z,5.51
2022-11-21T09:05:25.543Z,5.56
2022-11-21T09:07:57.566Z,5.43
2022-11-21T09:10:26.639Z,5.31
2022-11-21T09:12:54.192Z,5.44
2022-11-21T09:15:40.292Z,5.57
2022-11-21T09:18:08.304Z,5.53
2022-11-21T09:20:41.175Z,5.74
2022-11-21T09:23:11.585Z,5.59
2022-11-21T09:25:39.216Z,5.75
2022-11-21T09:28:09.472Z,5.86
2022-11-21T09:30:37.820Z,6.07
2022-11-21T09:33:07.833Z,5.78
2022-11-21T09:35:35.706Z,6.11
2022-11-21T09:38:04.102Z,6.24
2022-11-21T09:40:34.178Z,6.43
2022-11-21T09:43:20.360Z,6.52
2022-11-21T09:45:56.321Z,5.93
2022-11-21T09:48:33.880Z,6.30
2022-11-21T09:51:12.117Z,6.47
2022-11-21T09:53:45.484Z,6.59
2022-11-21T09:56:20.098Z,6.86
2022-11-21T09:59:20.406Z,6.77
2022-11-21T10:01:58.095Z,6.53
2022-11-21T10:04:27.440Z,6.83
2022-11-21T10:07:21.683Z,6.72
2022-11-21T10:10:14.396Z,6.75
2022-11-21T10:12:47.457Z,6.72
2022-11-21T10:15:57.410Z,6.69
2022-11-21T10:18:56.788Z,6.67
2022-11-21T10:21:24.411Z,7.05
2022-11-21T10:24:10.314Z,7.14
2022-11-21T10:26:58.164Z,6.76
2022-11-21T10:29:39.637Z,6.46
2022-11-21T10:32:36.956Z,6.60
2022-11-21T10:35:24.803Z,6.56
2022-11-21T10:37:55.952Z,6.70
2022-11-21T10:40:30.957Z,6.75
2022-11-21T10:43:27.568Z,6.73
2022-11-21T10:45:55.080Z,6.55
2022-11-21T10:48:28.696Z,6.54
2022-11-21T10:51:31.396Z,6.73
2022-11-21T10:54:28.384Z,6.61
2022-11-21T10:57:18.632Z,6.87
2022-11-21T10:59:58.676Z,6.89
2022-11-21T11:02:26.865Z,6.99
2022-11-21T11:05:16.385Z,7.04
2022-11-21T11:08:09.582Z,7.15
2022-11-21T11:10:39.666Z,7.14
2022-11-21T11:13:46.692Z,7.22
2022-11-21T11:16:17.288Z,7.33
2022-11-21T11:18:59.045Z,7.48
2022-11-21T11:21:44.141Z,7.31
2022-11-21T11:24:11.528Z,7.14
2022-11-21T11:26:48.905Z,7.47
2022-11-21T11:29:20.232Z,7.65
2022-11-21T11:32:00.191Z,7.69
2022-11-21T11:34:40.901Z,7.77
2022-11-21T11:37:31.270Z,7.75
2022-11-21T11:40:23.263Z,7.63
2022-11-21T11:43:34.288Z,7.96
2022-11-21T11:46:32.636Z,7.91
2022-11-21T11:49:22.073Z,7.89
2022-11-21T11:51:59.536Z,7.88
2022-11-21T11:54:34.215Z,7.88
2022-11-21T11:57:04.536Z,8.02
2022-11-21T11:59:40.814Z,8.08
2022-11-21T12:02:20.701Z,8.18
2022-11-21T12:05:09.050Z,8.23
2022-11-21T12:11:09.740Z,8.27
2022-11-21T12:13:37.796Z,8.09
2022-11-21T12:16:14.233Z,7.92
2022-11-21T12:19:03.241Z,8.10
2022-11-21T12:21:31.228Z,8.02
2022-11-21T12:24:02.097Z,7.98
2022-11-21T12:26:48.469Z,7.92
2022-11-21T12:29:17.054Z,7.88
2022-11-21T12:32:19.914Z,7.87
2022-11-21T12:34:59.501Z,7.81
2022-11-21T12:37:35.872Z,7.85
2022-11-21T12:40:38.821Z,7.78
2022-11-21T12:43:25.647Z,7.72
2022-11-21T12:46:09.781Z,7.70
2022-11-21T12:48:55.544Z,7.72
2022-11-21T12:51:53.613Z,7.71
2022-11-21T12:54:38.686Z,7.73
2022-11-21T12:57:14.092Z,7.78
2022-11-21T12:59:44.499Z,7.83
2022-11-21T13:02:40.176Z,7.82
2022-11-21T13:05:13.772Z,7.92
2022-11-21T13:07:43.307Z,7.87
2022-11-21T13:10:15.540Z,7.94
2022-11-21T13:12:49.960Z,7.92
2022-11-21T13:15:36.992Z,7.94
2022-11-21T13:18:23.245Z,7.96
2022-11-21T13:20:52.353Z,7.97
2022-11-21T13:23:40.904Z,7.95
2022-11-21T13:26:28.749Z,7.89
2022-11-21T13:29:11.305Z,7.84
2022-11-21T13:31:40.759Z,7.85
2022-11-21T13:34:27.803Z,7.80
2022-11-21T13:36:55.532Z,7.81
2022-11-21T13:39:29.802Z,7.85
2022-11-21T13:42:24.893Z,7.80
2022-11-21T13:44:53.302Z,7.80
2022-11-21T13:47:26.487Z,7.80
2022-11-21T13:50:20.976Z,7.80
2022-11-21T13:53:00.337Z,7.74
2022-11-21T13:55:55.187Z,7.82
2022-11-21T13:58:29.084Z,7.84
2022-11-21T14:01:15.786Z,7.71
2022-11-21T14:04:08.547Z,7.74
2022-11-21T14:06:43.530Z,7.70
2022-11-21T14:09:37.121Z,7.67
2022-11-21T14:12:18.436Z,7.60
2022-11-21T14:14:56.912Z,7.60
2022-11-21T14:17:32.060Z,7.59
2022-11-21T14:20:02.705Z,7.62
2022-11-21T14:22:52.036Z,7.57
2022-11-21T14:25:23.765Z,7.58
2022-11-21T14:27:54.775Z,7.58
2022-11-21T14:30:28.864Z,7.57
2022-11-21T14:32:56.797Z,7.53
2022-11-21T14:35:24.767Z,7.53
2022-11-21T14:37:53.916Z,7.50
2022-11-21T14:40:23.545Z,7.48
2022-11-21T14:42:51.353Z,7.48
2022-11-21T14:45:21.816Z,7.47
2022-11-21T14:47:53.881Z,7.43
2022-11-21T14:50:29.976Z,7.41
2022-11-21T14:53:00.498Z,7.43
2022-11-21T14:55:31.689Z,7.39
2022-11-21T14:58:02.250Z,7.38
2022-11-21T15:03:21.648Z,7.33
2022-11-21T15:06:04.584Z,7.28
2022-11-21T15:09:51.396Z,7.23
2022-11-21T15:11:37.988Z,7.23
2022-11-21T15:14:44.440Z,7.13
2022-11-21T15:17:16.397Z,7.10
2022-11-21T15:19:47.127Z,7.06
2022-11-21T15:22:35.261Z,6.99
2022-11-21T15:25:08.512Z,6.92
2022-11-21T15:27:36.539Z,6.90
2022-11-21T15:30:24.902Z,6.85
2022-11-21T15:33:11.214Z,6.75
2022-11-21T15:35:38.596Z,6.68
2022-11-21T15:38:19.783Z,6.60
2022-11-21T15:41:10.849Z,6.48
2022-11-21T15:43:49.796Z,6.40
2022-11-21T15:46:19.960Z,6.36
2022-11-21T15:48:53.649Z,6.23
2022-11-21T15:51:51.307Z,6.13
2022-11-21T15:54:19.736Z,6.01
2022-11-21T15:56:47.551Z,6.07
2022-11-21T15:59:15.920Z,5.99
2022-11-21T16:01:43.373Z,5.96
2022-11-21T16:04:12.735Z,5.89
2022-11-21T16:06:40.332Z,5.89
2022-11-21T16:09:07.899Z,5.81
2022-11-21T16:11:37.398Z,5.80
2022-11-21T16:14:06.500Z,5.78
2022-11-21T16:16:42.705Z,5.77
2022-11-21T16:19:12.041Z,5.75
2022-11-21T16:21:39.880Z,5.76
2022-11-21T16:24:07.897Z,5.79
2022-11-21T16:26:35.787Z,5.84
2022-11-21T16:29:05.798Z,5.85
2022-11-21T16:31:33.776Z,5.84
2022-11-21T16:34:01.603Z,5.91
2022-11-21T16:36:31.324Z,5.93
2022-11-21T16:39:07.772Z,5.91
2022-11-21T16:41:39.381Z,5.95
2022-11-21T16:44:14.016Z,5.91
2022-11-21T16:46:43.464Z,5.94
2022-11-21T16:49:10.993Z,5.98
2022-11-21T16:51:38.401Z,6.00
2022-11-21T16:54:09.153Z,6.03
2022-11-21T16:56:37.197Z,6.01
2022-11-21T16:59:04.841Z,6.05
2022-11-21T17:01:32.837Z,5.98
2022-11-21T17:04:00.469Z,6.10
2022-11-21T17:06:30.375Z,6.11
2022-11-21T17:09:02.680Z,6.04
2022-11-21T17:11:32.011Z,6.13
2022-11-21T17:14:02.822Z,6.12
2022-11-21T17:16:30.956Z,6.15
2022-11-21T17:19:00.360Z,6.08
2022-11-21T17:21:29.326Z,6.11
2022-11-21T17:23:57.492Z,6.05
2022-11-21T17:26:27.540Z,6.04
2022-11-21T17:29:00.805Z,6.08
2022-11-21T17:31:28.483Z,6.11
2022-11-21T17:33:57.815Z,6.06
2022-11-21T17:36:28.080Z,6.09
2022-11-21T17:38:57.520Z,6.07
2022-11-21T17:41:27.401Z,6.11
2022-11-21T17:43:59.680Z,6.14
2022-11-21T17:46:28.426Z,6.12
2022-11-21T17:48:58.848Z,6.12
2022-11-21T17:51:30.590Z,6.15
2022-11-21T17:53:59.604Z,6.16
2022-11-21T17:56:30.797Z,6.17
2022-11-21T17:58:58.853Z,6.17
2022-11-21T18:01:26.788Z,6.15
2022-11-21T18:04:00.108Z,6.10
2022-11-21T18:06:39.114Z,6.08
2022-11-21T18:09:07.893Z,6.03
2022-11-21T18:11:39.910Z,5.81
2022-11-21T18:14:12.884Z,5.75
2022-11-21T18:16:44.712Z,5.76
2022-11-21T18:19:15.926Z,5.85
2022-11-21T18:21:43.317Z,5.80
2022-11-21T18:24:11.120Z,5.83
2022-11-21T18:26:39.523Z,5.79
2022-11-21T18:31:57.648Z,5.66
2022-11-21T18:34:25.128Z,5.69
2022-11-21T18:36:53.753Z,5.74
2022-11-21T18:39:25.192Z,5.77
2022-11-21T18:41:53.008Z,5.79
2022-11-21T18:44:22.585Z,5.79
2022-11-21T18:46:51.215Z,5.79
2022-11-21T18:49:19.124Z,5.77
2022-11-21T18:51:48.339Z,5.74
2022-11-21T18:54:17.236Z,5.79
2022-11-21T18:56:45.134Z,5.79
2022-11-21T18:59:12.884Z,5.82
2022-11-21T19:01:40.992Z,5.82
2022-11-21T19:04:09.330Z,5.86
2022-11-21T19:06:37.064Z,5.86
2022-11-21T19:09:05.468Z,5.88
2022-11-21T19:11:34.504Z,5.84
2022-11-21T19:14:02.193Z,5.76
2022-11-21T19:16:31.449Z,5.78
2022-11-21T19:19:32.272Z,5.74
2022-11-21T19:21:48.093Z,5.71
2022-11-21T19:24:16.780Z,5.66
2022-11-21T19:26:44.476Z,5.63
2022-11-21T19:29:12.865Z,5.57
2022-11-21T19:31:45.300Z,5.51
2022-11-21T19:34:15.110Z,5.69
2022-11-21T19:36:43.656Z,5.58
2022-11-21T19:39:11.896Z,5.47
2022-11-21T19:41:40.557Z,5.48
2022-11-21T19:44:08.392Z,5.43
2022-11-21T19:46:38.417Z,5.16
2022-11-21T19:49:07.901Z,5.19
2022-11-21T19:51:38.118Z,5.12
2022-11-21T19:54:07.899Z,5.13
2022-11-21T19:56:36.356Z,5.03
2022-11-21T19:59:05.037Z,4.89
2022-11-21T20:01:34.922Z,4.85
2022-11-21T20:04:05.488Z,4.78
2022-11-21T20:06:41.417Z,4.55
2022-11-21T20:09:11.602Z,4.65
2022-11-21T20:11:41.627Z,4.58
2022-11-21T20:14:09.808Z,4.16
2022-11-21T20:16:40.484Z,4.27
2022-11-21T20:19:10.740Z,4.30
2022-11-21T20:21:39.372Z,4.12
2022-11-21T20:24:07.599Z,4.04
2022-11-21T20:26:36.545Z,3.98
2022-11-21T20:29:05.573Z,3.90
2022-11-21T20:31:36.974Z,3.90
2022-11-21T20:34:13.129Z,3.98
2022-11-21T20:36:42.398Z,3.95
2022-11-21T20:39:15.931Z,4.00
2022-11-21T20:41:45.305Z,3.94
2022-11-21T20:47:09.670Z,3.57
2022-11-21T20:49:37.969Z,3.65
2022-11-21T20:54:54.595Z,3.60
2022-11-21T20:57:22.384Z,3.62
2022-11-21T20:59:50.115Z,3.41
2022-11-21T21:02:18.054Z,3.21
2022-11-21T21:04:45.861Z,3.16
2022-11-21T21:07:13.426Z,3.09
2022-11-21T21:09:41.262Z,3.22
2022-11-21T21:12:08.836Z,3.34
2022-11-21T21:14:36.683Z,3.25
2022-11-21T21:17:04.722Z,3.09
2022-11-21T21:19:32.550Z,2.98
2022-11-21T21:22:00.985Z,3.18
2022-11-21T21:24:28.807Z,3.13
2022-11-21T21:26:56.416Z,3.16
2022-11-21T21:29:23.870Z,3.10
2022-11-21T21:31:52.741Z,3.11
2022-11-21T21:34:22.294Z,3.09
2022-11-21T21:36:51.324Z,3.24
2022-11-21T21:39:19.228Z,3.28
2022-11-21T21:41:47.512Z,3.30
2022-11-21T21:44:16.055Z,3.36
2022-11-21T21:46:44.357Z,3.42
2022-11-21T21:49:11.828Z,3.41
2022-11-21T21:51:40.060Z,3.51
2022-11-21T21:54:15.697Z,3.55
2022-11-21T21:56:43.497Z,3.54
2022-11-21T21:59:11.260Z,3.66
2022-11-21T22:01:39.387Z,3.57
2022-11-21T22:04:07.157Z,3.55
2022-11-21T22:06:35.520Z,3.60
2022-11-21T22:09:03.659Z,3.59
2022-11-21T22:11:35.176Z,3.61
2022-11-21T22:14:06.001Z,3.61
2022-11-21T22:16:33.894Z,3.60
2022-11-21T22:19:01.469Z,3.60
2022-11-21T22:21:34.296Z,3.59
2022-11-21T22:26:52.414Z,3.56
2022-11-21T22:29:20.202Z,3.51
2022-11-21T22:31:47.656Z,3.51
2022-11-21T22:34:15.137Z,3.52
2022-11-21T22:36:43.443Z,3.44
2022-11-21T22:39:10.879Z,3.39
2022-11-21T22:41:38.349Z,3.35
2022-11-21T22:44:06.660Z,3.35
2022-11-21T22:46:34.132Z,3.28
2022-11-21T22:49:01.858Z,3.30
2022-11-21T22:51:29.968Z,3.28
2022-11-21T22:53:57.620Z,3.36
2022-11-21T22:56:26.081Z,3.33
2022-11-21T22:58:54.531Z,3.33
2022-11-21T23:01:24.159Z,3.37
2022-11-21T23:03:52.537Z,3.40
2022-11-21T23:06:23.568Z,3.35
2022-11-21T23:08:53.199Z,3.33
2022-11-21T23:11:23.325Z,3.33
2022-11-21T23:13:52.159Z,3.30
2022-11-21T23:16:22.050Z,3.31
2022-11-21T23:18:53.072Z,3.25
2022-11-21T23:21:21.599Z,3.19
2022-11-21T23:23:49.107Z,3.20
2022-11-21T23:26:17.223Z,3.28
2022-11-21T23:28:44.724Z,3.26
2022-11-21T23:31:12.237Z,3.24
2022-11-21T23:33:39.936Z,3.24
2022-11-21T23:36:07.595Z,3.21
2022-11-21T23:38:35.060Z,3.18
2022-11-21T23:41:02.802Z,3.18
2022-11-21T23:43:30.488Z,3.11
2022-11-21T23:45:57.925Z,3.05
2022-11-21T23:48:26.152Z,3.00
2022-11-21T23:50:53.856Z,2.99
2022-11-21T23:53:22.293Z,2.98
2022-11-21T23:55:50.033Z,2.92
2022-11-21T23:58:17.766Z,2.89
